sensor_id;sensor_type;location;lat;lon;timestamp;P1;P2;P0
73825;PMS5003;64145;55.060;73.168;2023-05-07T00:00:50;38.00;31.50;21.00
73825;PMS5003;64145;55.060;73.168;2023-05-07T00:03:55;36.00;31.00;20.00
73825;PMS5003;64145;55.060;73.168;2023-05-07T00:07:04;34.25;29.50;19.50
73825;PMS5003;64145;55.060;73.168;2023-05-07T00:09:48;37.50;29.00;21.00
73825;PMS5003;64145;55.060;73.168;2023-05-07T00:15:48;40.50;33.00;22.00
73825;PMS5003;64145;55.060;73.168;2023-05-07T00:21:59;42.50;36.00;24.00
73825;PMS5003;64145;55.060;73.168;2023-05-07T00:28:09;46.75;38.25;26.00
73825;PMS5003;64145;55.060;73.168;2023-05-07T00:34:19;55.75;44.00;30.00
73825;PMS5003;64145;55.060;73.168;2023-05-07T00:50:32;70.75;61.50;41.25
73825;PMS5003;64145;55.060;73.168;2023-05-07T00:53:48;69.75;62.75;42.50
73825;PMS5003;64145;55.060;73.168;2023-05-07T00:56:56;72.50;66.50;44.25
73825;PMS5003;64145;55.060;73.168;2023-05-07T01:49:25;32.75;30.50;21.00
73825;PMS5003;64145;55.060;73.168;2023-05-07T01:52:13;29.75;26.75;19.00
73825;PMS5003;64145;55.060;73.168;2023-05-07T01:54:44;32.00;29.00;19.25
73825;PMS5003;64145;55.060;73.168;2023-05-07T02:00:44;33.00;30.50;19.00
73825;PMS5003;64145;55.060;73.168;2023-05-07T02:03:49;32.75;29.00;19.00
73825;PMS5003;64145;55.060;73.168;2023-05-07T02:09:52;35.00;29.00;20.00
73825;PMS5003;64145;55.060;73.168;2023-05-07T02:13:06;34.50;30.00;20.00
73825;PMS5003;64145;55.060;73.168;2023-05-07T02:16:00;33.25;28.50;19.00
73825;PMS5003;64145;55.060;73.168;2023-05-07T02:19:03;30.00;28.00;18.00
73825;PMS5003;64145;55.060;73.168;2023-05-07T02:25:24;26.25;25.25;17.00
73825;PMS5003;64145;55.060;73.168;2023-05-07T02:34:54;28.75;27.00;16.75
73825;PMS5003;64145;55.060;73.168;2023-05-07T02:48:44;28.00;25.33;16.33
73825;PMS5003;64145;55.060;73.168;2023-05-07T03:11:38;20.25;19.50;15.00
73825;PMS5003;64145;55.060;73.168;2023-05-07T03:14:54;23.00;22.75;14.75
73825;PMS5003;64145;55.060;73.168;2023-05-07T03:17:55;24.50;23.25;16.50
73825;PMS5003;64145;55.060;73.168;2023-05-07T03:23:57;21.00;21.00;14.00
73825;PMS5003;64145;55.060;73.168;2023-05-07T03:27:00;20.00;19.00;10.00
73825;PMS5003;64145;55.060;73.168;2023-05-07T03:39:59;16.50;15.50;7.00
73825;PMS5003;64145;55.060;73.168;2023-05-07T03:45:56;11.00;10.00;4.00
73825;PMS5003;64145;55.060;73.168;2023-05-07T03:48:25;7.00;7.00;4.00
73825;PMS5003;64145;55.060;73.168;2023-05-07T03:57:11;7.50;6.50;3.50
73825;PMS5003;64145;55.060;73.168;2023-05-07T04:02:53;8.25;4.75;2.75
73825;PMS5003;64145;55.060;73.168;2023-05-07T04:05:40;7.00;4.50;1.75
73825;PMS5003;64145;55.060;73.168;2023-05-07T04:08:28;4.50;4.50;2.50
73825;PMS5003;64145;55.060;73.168;2023-05-07T04:11:37;6.50;4.75;2.25
73825;PMS5003;64145;55.060;73.168;2023-05-07T04:17:29;4.00;3.00;2.00
73825;PMS5003;64145;55.060;73.168;2023-05-07T04:20:04;2.00;2.00;2.00
73825;PMS5003;64145;55.060;73.168;2023-05-07T04:22:58;3.00;3.00;1.00
73825;PMS5003;64145;55.060;73.168;2023-05-07T04:26:04;3.00;3.00;1.00
73825;PMS5003;64145;55.060;73.168;2023-05-07T04:29:08;4.25;4.25;0.25
73825;PMS5003;64145;55.060;73.168;2023-05-07T04:35:28;2.25;2.00;1.00
73825;PMS5003;64145;55.060;73.168;2023-05-07T04:38:34;2.00;2.00;1.00
73825;PMS5003;64145;55.060;73.168;2023-05-07T04:41:08;3.00;3.00;1.00
73825;PMS5003;64145;55.060;73.168;2023-05-07T04:43:46;3.50;3.50;1.50
73825;PMS5003;64145;55.060;73.168;2023-05-07T04:46:46;3.00;3.00;1.00
73825;PMS5003;64145;55.060;73.168;2023-05-07T04:49:33;2.50;2.50;0.50
73825;PMS5003;64145;55.060;73.168;2023-05-07T04:52:04;3.00;3.00;0.00
73825;PMS5003;64145;55.060;73.168;2023-05-07T04:54:40;3.25;3.25;1.25
73825;PMS5003;64145;55.060;73.168;2023-05-07T04:57:26;4.00;4.00;2.00
73825;PMS5003;64145;55.060;73.168;2023-05-07T05:02:40;2.75;2.75;1.25
73825;PMS5003;64145;55.060;73.168;2023-05-07T05:05:43;3.00;3.00;0.00
73825;PMS5003;64145;55.060;73.168;2023-05-07T05:08:11;6.00;6.00;1.75
73825;PMS5003;64145;55.060;73.168;2023-05-07T05:10:37;6.00;5.67;2.67
73825;PMS5003;64145;55.060;73.168;2023-05-07T05:15:47;1.00;1.00;0.00
73825;PMS5003;64145;55.060;73.168;2023-05-07T05:18:13;2.00;2.00;0.00
73825;PMS5003;64145;55.060;73.168;2023-05-07T05:20:40;1.75;1.00;0.00
73825;PMS5003;64145;55.060;73.168;2023-05-07T05:23:11;8.50;8.00;2.50
73825;PMS5003;64145;55.060;73.168;2023-05-07T05:25:36;10.50;10.25;5.50
73825;PMS5003;64145;55.060;73.168;2023-05-07T05:28:04;2.50;2.25;1.00
73825;PMS5003;64145;55.060;73.168;2023-05-07T05:30:29;2.67;2.67;0.67
73825;PMS5003;64145;55.060;73.168;2023-05-07T05:32:55;3.67;2.67;0.00
73825;PMS5003;64145;55.060;73.168;2023-05-07T05:35:20;1.00;1.00;0.00
73825;PMS5003;64145;55.060;73.168;2023-05-07T05:37:46;4.00;3.33;1.00
73825;PMS5003;64145;55.060;73.168;2023-05-07T05:40:12;1.00;1.00;0.00
73825;PMS5003;64145;55.060;73.168;2023-05-07T05:42:37;1.00;1.00;0.00
73825;PMS5003;64145;55.060;73.168;2023-05-07T05:45:03;1.00;1.00;0.00
73825;PMS5003;64145;55.060;73.168;2023-05-07T05:47:29;0.00;0.00;0.00
73825;PMS5003;64145;55.060;73.168;2023-05-07T05:49:54;0.25;0.00;0.00
73825;PMS5003;64145;55.060;73.168;2023-05-07T05:52:20;0.00;0.00;0.00
73825;PMS5003;64145;55.060;73.168;2023-05-07T05:54:48;2.00;2.00;0.00
73825;PMS5003;64145;55.060;73.168;2023-05-07T05:57:14;2.33;2.33;0.00
73825;PMS5003;64145;55.060;73.168;2023-05-07T05:59:40;7.00;7.00;0.00
73825;PMS5003;64145;55.060;73.168;2023-05-07T06:02:06;8.67;8.67;3.67
73825;PMS5003;64145;55.060;73.168;2023-05-07T06:04:31;5.00;5.00;3.00
73825;PMS5003;64145;55.060;73.168;2023-05-07T06:06:57;3.00;3.00;1.00
73825;PMS5003;64145;55.060;73.168;2023-05-07T06:09:23;1.00;1.00;0.00
73825;PMS5003;64145;55.060;73.168;2023-05-07T06:11:48;1.00;1.00;0.00
73825;PMS5003;64145;55.060;73.168;2023-05-07T06:14:14;2.00;2.00;0.00
73825;PMS5003;64145;55.060;73.168;2023-05-07T06:19:24;2.00;2.00;0.00
73825;PMS5003;64145;55.060;73.168;2023-05-07T06:21:51;3.00;2.00;0.00
73825;PMS5003;64145;55.060;73.168;2023-05-07T06:24:17;2.00;1.00;0.00
73825;PMS5003;64145;55.060;73.168;2023-05-07T06:26:43;2.33;1.33;0.00
73825;PMS5003;64145;55.060;73.168;2023-05-07T06:29:08;2.00;1.00;0.00
73825;PMS5003;64145;55.060;73.168;2023-05-07T06:34:18;0.00;0.00;0.00
73825;PMS5003;64145;55.060;73.168;2023-05-07T06:36:44;2.00;1.67;0.00
73825;PMS5003;64145;55.060;73.168;2023-05-07T06:39:09;2.00;2.00;0.00
73825;PMS5003;64145;55.060;73.168;2023-05-07T06:41:35;2.00;1.00;0.00
73825;PMS5003;64145;55.060;73.168;2023-05-07T06:44:03;3.00;2.00;0.00
73825;PMS5003;64145;55.060;73.168;2023-05-07T06:46:35;3.00;3.00;0.00
73825;PMS5003;64145;55.060;73.168;2023-05-07T06:49:01;1.00;1.00;0.00
73825;PMS5003;64145;55.060;73.168;2023-05-07T06:51:45;1.50;1.50;0.00
73825;PMS5003;64145;55.060;73.168;2023-05-07T06:56:56;1.00;1.00;0.00
73825;PMS5003;64145;55.060;73.168;2023-05-07T06:59:40;1.00;1.00;0.00
73825;PMS5003;64145;55.060;73.168;2023-05-07T07:02:05;1.00;1.00;0.00
73825;PMS5003;64145;55.060;73.168;2023-05-07T07:07:24;1.00;1.00;0.00
73825;PMS5003;64145;55.060;73.168;2023-05-07T07:09:50;1.00;1.00;0.00
73825;PMS5003;64145;55.060;73.168;2023-05-07T07:12:16;2.00;2.00;0.00
73825;PMS5003;64145;55.060;73.168;2023-05-07T07:14:42;1.00;1.00;0.00
73825;PMS5003;64145;55.060;73.168;2023-05-07T07:17:08;1.25;1.00;0.00
73825;PMS5003;64145;55.060;73.168;2023-05-07T07:19:34;0.00;0.00;0.00
73825;PMS5003;64145;55.060;73.168;2023-05-07T07:22:00;0.00;0.00;0.00
73825;PMS5003;64145;55.060;73.168;2023-05-07T07:24:25;0.33;0.00;0.00
73825;PMS5003;64145;55.060;73.168;2023-05-07T07:27:09;1.00;1.00;0.00
73825;PMS5003;64145;55.060;73.168;2023-05-07T07:29:35;0.00;0.00;0.00
73825;PMS5003;64145;55.060;73.168;2023-05-07T07:32:00;0.00;0.00;0.00
73825;PMS5003;64145;55.060;73.168;2023-05-07T07:34:26;2.00;1.67;0.00
73825;PMS5003;64145;55.060;73.168;2023-05-07T07:39:35;0.00;0.00;0.00
73825;PMS5003;64145;55.060;73.168;2023-05-07T07:42:02;2.00;2.00;0.00
73825;PMS5003;64145;55.060;73.168;2023-05-07T07:44:28;1.00;1.00;0.00
73825;PMS5003;64145;55.060;73.168;2023-05-07T07:46:54;2.00;1.00;0.00
73825;PMS5003;64145;55.060;73.168;2023-05-07T07:49:20;1.50;1.50;0.50
73825;PMS5003;64145;55.060;73.168;2023-05-07T07:54:29;1.00;0.00;0.00
73825;PMS5003;64145;55.060;73.168;2023-05-07T07:56:55;1.00;0.33;0.00
73825;PMS5003;64145;55.060;73.168;2023-05-07T07:59:20;0.00;0.00;0.00
73825;PMS5003;64145;55.060;73.168;2023-05-07T08:01:46;0.33;0.33;0.00
73825;PMS5003;64145;55.060;73.168;2023-05-07T08:04:13;0.50;0.00;0.00
73825;PMS5003;64145;55.060;73.168;2023-05-07T08:06:57;2.00;1.00;0.00
73825;PMS5003;64145;55.060;73.168;2023-05-07T08:12:07;2.00;1.00;0.00
73825;PMS5003;64145;55.060;73.168;2023-05-07T08:14:33;1.00;0.00;0.00
73825;PMS5003;64145;55.060;73.168;2023-05-07T08:16:58;1.00;1.00;0.00
73825;PMS5003;64145;55.060;73.168;2023-05-07T08:19:24;2.00;2.00;0.00
73825;PMS5003;64145;55.060;73.168;2023-05-07T08:21:49;1.00;1.00;0.00
73825;PMS5003;64145;55.060;73.168;2023-05-07T08:24:15;1.75;1.50;0.00
73825;PMS5003;64145;55.060;73.168;2023-05-07T08:26:41;1.50;1.50;0.00
73825;PMS5003;64145;55.060;73.168;2023-05-07T08:29:07;1.00;1.00;0.00
73825;PMS5003;64145;55.060;73.168;2023-05-07T08:31:33;1.00;1.00;0.00
73825;PMS5003;64145;55.060;73.168;2023-05-07T08:34:17;1.50;1.50;0.00
73825;PMS5003;64145;55.060;73.168;2023-05-07T08:36:43;1.33;1.33;0.00
73825;PMS5003;64145;55.060;73.168;2023-05-07T08:39:08;2.00;2.00;0.00
73825;PMS5003;64145;55.060;73.168;2023-05-07T08:41:34;1.00;1.00;0.00
73825;PMS5003;64145;55.060;73.168;2023-05-07T08:43:59;1.00;1.00;0.00
73825;PMS5003;64145;55.060;73.168;2023-05-07T08:46:29;1.00;1.00;0.00
73825;PMS5003;64145;55.060;73.168;2023-05-07T08:48:56;2.00;2.00;0.00
73825;PMS5003;64145;55.060;73.168;2023-05-07T08:51:21;1.00;1.00;0.00
73825;PMS5003;64145;55.060;73.168;2023-05-07T08:53:47;0.00;0.00;0.00
73825;PMS5003;64145;55.060;73.168;2023-05-07T08:56:13;0.00;0.00;0.00
73825;PMS5003;64145;55.060;73.168;2023-05-07T08:58:41;0.00;0.00;0.00
73825;PMS5003;64145;55.060;73.168;2023-05-07T09:01:10;1.00;1.00;0.00
73825;PMS5003;64145;55.060;73.168;2023-05-07T09:03:38;0.00;0.00;0.00
73825;PMS5003;64145;55.060;73.168;2023-05-07T09:06:05;0.00;0.00;0.00
73825;PMS5003;64145;55.060;73.168;2023-05-07T09:08:32;1.00;1.00;0.00
73825;PMS5003;64145;55.060;73.168;2023-05-07T09:10:58;0.00;0.00;0.00
73825;PMS5003;64145;55.060;73.168;2023-05-07T09:16:11;1.00;1.00;0.00
73825;PMS5003;64145;55.060;73.168;2023-05-07T09:21:21;0.00;0.00;0.00
73825;PMS5003;64145;55.060;73.168;2023-05-07T09:23:51;0.00;0.00;0.00
73825;PMS5003;64145;55.060;73.168;2023-05-07T09:26:35;1.00;0.00;0.00
73825;PMS5003;64145;55.060;73.168;2023-05-07T09:29:01;1.00;0.00;0.00
73825;PMS5003;64145;55.060;73.168;2023-05-07T09:31:26;1.67;0.67;0.00
73825;PMS5003;64145;55.060;73.168;2023-05-07T09:33:52;5.33;4.67;2.00
73825;PMS5003;64145;55.060;73.168;2023-05-07T09:36:18;1.25;1.25;1.00
73825;PMS5003;64145;55.060;73.168;2023-05-07T09:38:44;2.00;2.00;1.00
73825;PMS5003;64145;55.060;73.168;2023-05-07T09:41:11;1.00;1.00;1.00
73825;PMS5003;64145;55.060;73.168;2023-05-07T09:43:37;1.00;1.00;0.00
73825;PMS5003;64145;55.060;73.168;2023-05-07T09:46:05;0.00;0.00;0.00
73825;PMS5003;64145;55.060;73.168;2023-05-07T09:48:31;3.50;3.50;0.50
73825;PMS5003;64145;55.060;73.168;2023-05-07T09:50:58;2.00;2.00;0.00
73825;PMS5003;64145;55.060;73.168;2023-05-07T09:53:26;9.50;9.50;4.25
73825;PMS5003;64145;55.060;73.168;2023-05-07T09:56:12;7.25;6.75;2.75
73825;PMS5003;64145;55.060;73.168;2023-05-07T10:01:22;15.00;14.00;5.50
73825;PMS5003;64145;55.060;73.168;2023-05-07T10:06:34;0.00;0.00;0.00
73825;PMS5003;64145;55.060;73.168;2023-05-07T10:09:00;0.00;0.00;0.00
73825;PMS5003;64145;55.060;73.168;2023-05-07T10:11:26;0.50;0.00;0.00
73825;PMS5003;64145;55.060;73.168;2023-05-07T10:13:52;2.00;1.00;0.00
73825;PMS5003;64145;55.060;73.168;2023-05-07T10:16:17;1.00;1.00;0.00
73825;PMS5003;64145;55.060;73.168;2023-05-07T10:18:43;1.00;1.00;0.00
73825;PMS5003;64145;55.060;73.168;2023-05-07T10:21:19;4.33;4.00;0.00
73825;PMS5003;64145;55.060;73.168;2023-05-07T10:23:46;3.00;3.00;0.00
73825;PMS5003;64145;55.060;73.168;2023-05-07T10:26:14;1.00;1.00;0.00
73825;PMS5003;64145;55.060;73.168;2023-05-07T10:34:13;14.00;12.00;8.50
73825;PMS5003;64145;55.060;73.168;2023-05-07T10:36:59;10.75;9.00;3.50
73825;PMS5003;64145;55.060;73.168;2023-05-07T10:39:43;2.25;2.25;2.00
73825;PMS5003;64145;55.060;73.168;2023-05-07T10:42:10;2.00;2.00;0.00
73825;PMS5003;64145;55.060;73.168;2023-05-07T10:44:36;3.00;3.00;0.00
73825;PMS5003;64145;55.060;73.168;2023-05-07T10:47:20;1.50;1.00;0.00
73825;PMS5003;64145;55.060;73.168;2023-05-07T10:52:30;4.00;4.00;0.00
73825;PMS5003;64145;55.060;73.168;2023-05-07T10:57:40;3.00;3.00;0.00
73825;PMS5003;64145;55.060;73.168;2023-05-07T11:05:24;5.00;4.75;3.00
73825;PMS5003;64145;55.060;73.168;2023-05-07T11:07:59;10.50;9.75;7.00
73825;PMS5003;64145;55.060;73.168;2023-05-07T11:13:09;6.75;5.75;2.00
73825;PMS5003;64145;55.060;73.168;2023-05-07T11:15:36;5.00;4.00;1.00
73825;PMS5003;64145;55.060;73.168;2023-05-07T11:18:02;5.00;4.00;2.00
73825;PMS5003;64145;55.060;73.168;2023-05-07T11:26:00;11.75;11.00;6.50
73825;PMS5003;64145;55.060;73.168;2023-05-07T11:28:28;8.50;7.00;4.00
73825;PMS5003;64145;55.060;73.168;2023-05-07T11:30:53;4.75;4.75;2.50
73825;PMS5003;64145;55.060;73.168;2023-05-07T11:33:19;5.00;5.00;2.00
73825;PMS5003;64145;55.060;73.168;2023-05-07T11:35:45;6.00;6.00;1.00
73825;PMS5003;64145;55.060;73.168;2023-05-07T11:38:11;7.75;7.50;4.50
73825;PMS5003;64145;55.060;73.168;2023-05-07T11:40:50;9.00;6.50;3.00
73825;PMS5003;64145;55.060;73.168;2023-05-07T11:43:17;10.00;10.00;5.00
73825;PMS5003;64145;55.060;73.168;2023-05-07T11:45:46;8.50;8.50;4.75
73825;PMS5003;64145;55.060;73.168;2023-05-07T11:48:12;5.00;5.00;1.00
73825;PMS5003;64145;55.060;73.168;2023-05-07T11:50:51;7.50;6.75;3.00
73825;PMS5003;64145;55.060;73.168;2023-05-07T11:53:18;6.75;6.75;3.00
73825;PMS5003;64145;55.060;73.168;2023-05-07T11:55:44;5.75;5.50;4.50
73825;PMS5003;64145;55.060;73.168;2023-05-07T11:58:28;6.00;6.00;2.00
73825;PMS5003;64145;55.060;73.168;2023-05-07T12:00:56;8.00;7.33;5.00
73825;PMS5003;64145;55.060;73.168;2023-05-07T12:03:21;5.00;5.00;3.00
73825;PMS5003;64145;55.060;73.168;2023-05-07T12:05:47;7.67;6.67;4.00
73825;PMS5003;64145;55.060;73.168;2023-05-07T12:08:20;8.50;8.00;4.50
73825;PMS5003;64145;55.060;73.168;2023-05-07T12:10:46;12.75;11.75;8.75
73825;PMS5003;64145;55.060;73.168;2023-05-07T12:15:53;7.00;7.00;4.00
73825;PMS5003;64145;55.060;73.168;2023-05-07T12:18:19;5.25;5.00;2.00
73825;PMS5003;64145;55.060;73.168;2023-05-07T12:20:45;6.50;6.50;3.50
73825;PMS5003;64145;55.060;73.168;2023-05-07T12:23:10;5.00;5.00;4.00
73825;PMS5003;64145;55.060;73.168;2023-05-07T12:25:37;7.00;6.67;3.00
73825;PMS5003;64145;55.060;73.168;2023-05-07T12:28:03;6.00;6.00;4.00
73825;PMS5003;64145;55.060;73.168;2023-05-07T12:30:39;6.25;6.25;3.00
73825;PMS5003;64145;55.060;73.168;2023-05-07T12:33:05;6.00;6.00;2.75
73825;PMS5003;64145;55.060;73.168;2023-05-07T12:35:32;5.00;4.25;2.00
73825;PMS5003;64145;55.060;73.168;2023-05-07T12:37:58;8.75;8.25;4.00
73825;PMS5003;64145;55.060;73.168;2023-05-07T12:40:34;7.00;7.00;4.00
73825;PMS5003;64145;55.060;73.168;2023-05-07T12:43:02;6.00;6.00;3.00
73825;PMS5003;64145;55.060;73.168;2023-05-07T12:45:27;6.00;6.00;4.00
73825;PMS5003;64145;55.060;73.168;2023-05-07T12:47:56;6.75;6.75;4.00
73825;PMS5003;64145;55.060;73.168;2023-05-07T12:50:21;8.00;7.00;4.00
73825;PMS5003;64145;55.060;73.168;2023-05-07T12:52:47;8.33;7.67;5.00
73825;PMS5003;64145;55.060;73.168;2023-05-07T12:55:32;9.00;9.00;5.75
73825;PMS5003;64145;55.060;73.168;2023-05-07T12:58:20;7.00;7.00;4.00
73825;PMS5003;64145;55.060;73.168;2023-05-07T13:00:50;7.00;7.00;4.75
73825;PMS5003;64145;55.060;73.168;2023-05-07T13:03:29;7.50;7.50;3.75
73825;PMS5003;64145;55.060;73.168;2023-05-07T13:06:13;7.00;7.00;4.00
73825;PMS5003;64145;55.060;73.168;2023-05-07T13:08:57;6.00;6.00;3.00
73825;PMS5003;64145;55.060;73.168;2023-05-07T13:14:26;8.00;7.00;4.00
73825;PMS5003;64145;55.060;73.168;2023-05-07T13:16:51;8.00;8.00;3.00
73825;PMS5003;64145;55.060;73.168;2023-05-07T13:19:17;8.00;8.00;5.00
73825;PMS5003;64145;55.060;73.168;2023-05-07T13:21:43;6.00;6.00;3.00
73825;PMS5003;64145;55.060;73.168;2023-05-07T13:24:09;7.33;7.33;3.00
73825;PMS5003;64145;55.060;73.168;2023-05-07T13:26:34;8.00;7.00;4.00
73825;PMS5003;64145;55.060;73.168;2023-05-07T13:29:18;9.00;8.50;4.00
73825;PMS5003;64145;55.060;73.168;2023-05-07T13:31:44;7.00;7.00;4.00
73825;PMS5003;64145;55.060;73.168;2023-05-07T13:34:12;7.00;7.00;4.00
73825;PMS5003;64145;55.060;73.168;2023-05-07T13:36:38;6.00;6.00;3.00
73825;PMS5003;64145;55.060;73.168;2023-05-07T13:39:04;6.50;6.25;3.50
73825;PMS5003;64145;55.060;73.168;2023-05-07T13:41:31;8.50;8.00;4.00
73825;PMS5003;64145;55.060;73.168;2023-05-07T13:43:57;8.00;7.00;5.00
73825;PMS5003;64145;55.060;73.168;2023-05-07T13:46:22;11.67;11.33;7.33
73825;PMS5003;64145;55.060;73.168;2023-05-07T13:48:48;14.25;12.25;7.00
73825;PMS5003;64145;55.060;73.168;2023-05-07T13:51:14;9.00;8.00;4.00
73825;PMS5003;64145;55.060;73.168;2023-05-07T13:53:41;8.00;8.00;5.00
73825;PMS5003;64145;55.060;73.168;2023-05-07T13:56:06;7.67;7.67;5.33
73825;PMS5003;64145;55.060;73.168;2023-05-07T13:58:32;8.00;7.00;4.00
73825;PMS5003;64145;55.060;73.168;2023-05-07T14:03:41;7.75;7.75;5.00
73825;PMS5003;64145;55.060;73.168;2023-05-07T14:06:07;8.00;7.00;5.00
73825;PMS5003;64145;55.060;73.168;2023-05-07T14:08:33;8.00;8.00;5.00
73825;PMS5003;64145;55.060;73.168;2023-05-07T14:13:42;8.50;7.25;5.00
73825;PMS5003;64145;55.060;73.168;2023-05-07T14:16:08;13.00;11.00;6.00
73825;PMS5003;64145;55.060;73.168;2023-05-07T14:18:33;12.00;11.00;6.00
73825;PMS5003;64145;55.060;73.168;2023-05-07T14:20:59;16.25;13.50;7.50
73825;PMS5003;64145;55.060;73.168;2023-05-07T14:23:27;17.00;15.00;9.00
73825;PMS5003;64145;55.060;73.168;2023-05-07T14:26:16;19.00;17.00;9.00
73825;PMS5003;64145;55.060;73.168;2023-05-07T14:29:13;18.00;18.00;9.00
73825;PMS5003;64145;55.060;73.168;2023-05-07T14:31:44;18.25;18.00;8.00
73825;PMS5003;64145;55.060;73.168;2023-05-07T14:40:31;20.00;17.00;8.00
73825;PMS5003;64145;55.060;73.168;2023-05-07T14:43:00;21.00;18.00;9.25
73825;PMS5003;64145;55.060;73.168;2023-05-07T14:45:28;18.00;15.00;7.50
73825;PMS5003;64145;55.060;73.168;2023-05-07T14:47:56;18.00;16.00;8.50
73825;PMS5003;64145;55.060;73.168;2023-05-07T14:50:48;19.00;17.00;6.75
73825;PMS5003;64145;55.060;73.168;2023-05-07T14:56:29;37.50;31.75;19.75
73825;PMS5003;64145;55.060;73.168;2023-05-07T15:02:31;74.00;67.00;44.00
73825;PMS5003;64145;55.060;73.168;2023-05-07T15:11:24;96.75;92.75;64.25
73825;PMS5003;64145;55.060;73.168;2023-05-07T15:14:13;116.75;110.50;76.25
73825;PMS5003;64145;55.060;73.168;2023-05-07T15:16:50;139.50;134.50;91.50
73825;PMS5003;64145;55.060;73.168;2023-05-07T15:22:10;122.00;112.00;76.00
73825;PMS5003;64145;55.060;73.168;2023-05-07T15:24:45;93.75;88.75;57.50
73825;PMS5003;64145;55.060;73.168;2023-05-07T15:31:01;73.75;65.75;43.75
73825;PMS5003;64145;55.060;73.168;2023-05-07T15:34:09;69.50;57.50;38.00
73825;PMS5003;64145;55.060;73.168;2023-05-07T15:37:15;69.50;56.50;39.00
73825;PMS5003;64145;55.060;73.168;2023-05-07T15:40:01;66.00;53.00;36.00
73825;PMS5003;64145;55.060;73.168;2023-05-07T15:42:54;66.75;53.00;35.00
73825;PMS5003;64145;55.060;73.168;2023-05-07T15:45:54;68.25;56.00;37.00
73825;PMS5003;64145;55.060;73.168;2023-05-07T15:48:50;72.50;63.00;43.25
73825;PMS5003;64145;55.060;73.168;2023-05-07T15:51:23;73.00;64.00;44.75
73825;PMS5003;64145;55.060;73.168;2023-05-07T15:54:12;72.00;62.25;43.00
73825;PMS5003;64145;55.060;73.168;2023-05-07T15:56:50;67.00;54.75;38.00
73825;PMS5003;64145;55.060;73.168;2023-05-07T15:59:45;66.75;53.75;37.00
73825;PMS5003;64145;55.060;73.168;2023-05-07T16:05:48;68.00;59.75;41.25
73825;PMS5003;64145;55.060;73.168;2023-05-07T16:08:47;72.75;63.25;43.75
73825;PMS5003;64145;55.060;73.168;2023-05-07T16:11:44;75.00;66.75;45.00
73825;PMS5003;64145;55.060;73.168;2023-05-07T16:14:30;68.50;55.00;37.75
73825;PMS5003;64145;55.060;73.168;2023-05-07T16:17:05;63.00;50.50;34.00
73825;PMS5003;64145;55.060;73.168;2023-05-07T16:22:47;64.25;52.25;36.75
73825;PMS5003;64145;55.060;73.168;2023-05-07T16:25:27;74.00;67.75;47.00
73825;PMS5003;64145;55.060;73.168;2023-05-07T16:28:02;84.50;80.75;55.75
73825;PMS5003;64145;55.060;73.168;2023-05-07T16:31:02;94.50;91.75;65.25
73825;PMS5003;64145;55.060;73.168;2023-05-07T16:33:33;96.75;89.75;62.50
73825;PMS5003;64145;55.060;73.168;2023-05-07T16:39:19;80.75;77.00;52.00
73825;PMS5003;64145;55.060;73.168;2023-05-07T16:42:23;89.50;84.25;59.50
73825;PMS5003;64145;55.060;73.168;2023-05-07T16:45:30;84.00;80.00;55.25
73825;PMS5003;64145;55.060;73.168;2023-05-07T16:54:13;77.50;72.00;48.00
73825;PMS5003;64145;55.060;73.168;2023-05-07T16:56:39;77.33;69.67;47.00
73825;PMS5003;64145;55.060;73.168;2023-05-07T16:59:06;73.50;63.00;42.75
73825;PMS5003;64145;55.060;73.168;2023-05-07T17:01:35;69.50;57.00;39.00
73825;PMS5003;64145;55.060;73.168;2023-05-07T17:04:00;72.33;62.00;42.67
73825;PMS5003;64145;55.060;73.168;2023-05-07T17:06:26;78.67;74.67;50.67
73825;PMS5003;64145;55.060;73.168;2023-05-07T17:15:36;73.25;65.00;43.00
73825;PMS5003;64145;55.060;73.168;2023-05-07T17:18:35;75.75;69.75;46.25
73825;PMS5003;64145;55.060;73.168;2023-05-07T17:24:50;69.75;57.50;38.25
73825;PMS5003;64145;55.060;73.168;2023-05-07T17:28:09;64.50;52.00;34.00
73825;PMS5003;64145;55.060;73.168;2023-05-07T17:37:34;92.25;87.25;62.25
73825;PMS5003;64145;55.060;73.168;2023-05-07T17:43:30;125.00;120.25;84.00
73825;PMS5003;64145;55.060;73.168;2023-05-07T17:46:38;133.25;128.00;88.75
73825;PMS5003;64145;55.060;73.168;2023-05-07T17:49:33;145.00;140.00;95.25
73825;PMS5003;64145;55.060;73.168;2023-05-07T17:59:13;114.50;108.50;76.25
73825;PMS5003;64145;55.060;73.168;2023-05-07T18:02:19;120.00;115.75;83.25
73825;PMS5003;64145;55.060;73.168;2023-05-07T18:08:05;155.25;147.75;103.50
73825;PMS5003;64145;55.060;73.168;2023-05-07T18:11:08;170.75;160.25;109.75
73825;PMS5003;64145;55.060;73.168;2023-05-07T18:14:21;191.75;180.00;121.00
73825;PMS5003;64145;55.060;73.168;2023-05-07T18:17:35;152.25;144.50;97.50
73825;PMS5003;64145;55.060;73.168;2023-05-07T18:29:48;26.75;25.75;16.00
73825;PMS5003;64145;55.060;73.168;2023-05-07T18:32:54;27.75;27.00;18.00
73825;PMS5003;64145;55.060;73.168;2023-05-07T18:35:49;23.00;23.00;16.00
73825;PMS5003;64145;55.060;73.168;2023-05-07T19:02:51;63.00;49.25;34.50
73825;PMS5003;64145;55.060;73.168;2023-05-07T19:05:24;71.00;59.75;43.00
73825;PMS5003;64145;55.060;73.168;2023-05-07T19:08:03;74.50;65.00;44.50
73825;PMS5003;64145;55.060;73.168;2023-05-07T19:13:51;65.00;51.25;34.75
73825;PMS5003;64145;55.060;73.168;2023-05-07T19:16:26;56.50;45.00;31.00
73825;PMS5003;64145;55.060;73.168;2023-05-07T19:18:54;58.25;46.25;32.00
73825;PMS5003;64145;55.060;73.168;2023-05-07T19:26:50;66.00;53.00;37.00
73825;PMS5003;64145;55.060;73.168;2023-05-07T19:32:00;61.00;49.00;33.00
73825;PMS5003;64145;55.060;73.168;2023-05-07T19:34:29;49.75;41.00;28.00
73825;PMS5003;64145;55.060;73.168;2023-05-07T19:36:55;45.50;38.00;26.00
73825;PMS5003;64145;55.060;73.168;2023-05-07T19:42:05;52.00;43.00;29.00
73825;PMS5003;64145;55.060;73.168;2023-05-07T19:44:30;51.67;42.00;28.33
73825;PMS5003;64145;55.060;73.168;2023-05-07T19:46:57;52.00;42.00;28.00
73825;PMS5003;64145;55.060;73.168;2023-05-07T19:49:23;50.75;41.50;28.00
73825;PMS5003;64145;55.060;73.168;2023-05-07T19:51:49;54.00;43.00;29.25
73825;PMS5003;64145;55.060;73.168;2023-05-07T19:54:17;66.00;54.00;38.00
73825;PMS5003;64145;55.060;73.168;2023-05-07T19:56:43;69.00;57.67;41.00
73825;PMS5003;64145;55.060;73.168;2023-05-07T19:59:11;67.50;57.00;40.25
73825;PMS5003;64145;55.060;73.168;2023-05-07T20:01:52;70.00;61.33;42.00
73825;PMS5003;64145;55.060;73.168;2023-05-07T20:04:23;69.50;58.75;40.50
73825;PMS5003;64145;55.060;73.168;2023-05-07T20:06:56;61.25;48.75;32.25
73825;PMS5003;64145;55.060;73.168;2023-05-07T20:09:26;54.50;44.50;30.00
73825;PMS5003;64145;55.060;73.168;2023-05-07T20:11:51;54.00;44.00;30.00
73825;PMS5003;64145;55.060;73.168;2023-05-07T20:17:55;58.25;46.00;31.00
73825;PMS5003;64145;55.060;73.168;2023-05-07T20:21:19;69.00;57.50;40.25
73825;PMS5003;64145;55.060;73.168;2023-05-07T20:26:56;107.25;101.75;69.75
73825;PMS5003;64145;55.060;73.168;2023-05-07T20:36:44;103.50;94.00;64.00
73825;PMS5003;64145;55.060;73.168;2023-05-07T20:55:53;51.50;43.00;30.00
73825;PMS5003;64145;55.060;73.168;2023-05-07T21:02:27;33.00;30.75;22.00